Portada
METAR-TAF:

METAR-TAF

Aeroports :

Aeroport de Rabat

Rabat, Marroc

latitud: 34-03N, longitud: 006-46W, altitud: 84 m

Observació

L'informe es va fer fa 2 hores i 4 minuts, a les 05:30 UTC
Vent 6 kt del Sud-Oest
Temperatura 22°C
Humitat 83%
Pressió 1012 hPa
Visibilitat 10 km o més
Núvols disperses a una alçada de 600 ft

METAR: GMME 210530Z 22006KT 9999 SCT006 22/19 Q1012 NOSIG

Hora: 08:34 (07:34 UTC)

Pronòstic

L'informe es va fer fa 2 hores i 34 minuts, a les 05:00 UTC
Pronòstic vàlid del 21 a les 06 UTC al 22 a les 12 UTC
Vent 8 kt del Oest/Sud-Oest
Visibilitat: 8000 m
Probabilitat 30% :
Temporalment
l' 21 a les 06 UTC al 21 a les 08 UTC
Visibilitat: 4000 m
Cel ennuvolat a una alçada de 600 ft
boirina
Probabilitat 40% :
Temporalment
l' 22 a les 04 UTC al 22 a les 09 UTC
Visibilitat: 4000 m
Cel ennuvolat a una alçada de 1500 ft
boirina

TAF: GMME 210500Z 2106/2212 24008KT 8000 SCT0006 PROB30 TEMPO 2106/2108 4000 BR BKN006 PROB40 TEMPO 2204/2209 4000 BR BKN015

Observacions i pronòstics meteorològics de més de 4000 aeroports (METAR i TAF).

Les estacions disponibles són els punts grocs i vermells al mapa.

Posi el ratolí al punt desitjat per veure el nom de l'estació.

Feu clic per veure les observacions i els pronòstics meteorològics.

Per canviar el mapa: feu clic els botons verds amb una creu de color negre per apropar; al botó verd amb un guió per allunyar la imatge; o en les fletxes verdes per a mapes adjacents.


METAR-TAF: